sensor_id;sensor_type;location;lat;lon;timestamp;temperature;humidity
20182;DHT22;10250;50.756;6.172;2023-04-25T00:01:58;10.40;1.00
20182;DHT22;10250;50.756;6.172;2023-04-25T00:04:00;10.40;1.00
20182;DHT22;10250;50.756;6.172;2023-04-25T00:06:01;10.30;1.00
20182;DHT22;10250;50.756;6.172;2023-04-25T00:08:05;10.40;1.00
20182;DHT22;10250;50.756;6.172;2023-04-25T00:10:06;10.20;1.00
20182;DHT22;10250;50.756;6.172;2023-04-25T00:12:06;10.30;4.80
20182;DHT22;10250;50.756;6.172;2023-04-25T00:14:07;10.30;2.60
20182;DHT22;10250;50.756;6.172;2023-04-25T00:16:08;10.30;2.40
20182;DHT22;10250;50.756;6.172;2023-04-25T00:18:08;10.20;2.70
20182;DHT22;10250;50.756;6.172;2023-04-25T00:20:09;10.20;1.00
20182;DHT22;10250;50.756;6.172;2023-04-25T00:22:10;10.20;2.60
20182;DHT22;10250;50.756;6.172;2023-04-25T00:24:13;10.20;1.10
20182;DHT22;10250;50.756;6.172;2023-04-25T00:26:13;10.10;1.00
20182;DHT22;10250;50.756;6.172;2023-04-25T00:28:14;10.10;1.00
20182;DHT22;10250;50.756;6.172;2023-04-25T00:30:15;10.10;17.30
20182;DHT22;10250;50.756;6.172;2023-04-25T00:32:15;10.10;3.70
20182;DHT22;10250;50.756;6.172;2023-04-25T00:34:16;10.00;5.60
20182;DHT22;10250;50.756;6.172;2023-04-25T00:36:17;10.00;7.70
20182;DHT22;10250;50.756;6.172;2023-04-25T00:38:18;10.00;16.90
20182;DHT22;10250;50.756;6.172;2023-04-25T00:40:19;10.10;14.60
20182;DHT22;10250;50.756;6.172;2023-04-25T00:42:19;10.00;17.80
20182;DHT22;10250;50.756;6.172;2023-04-25T00:44:20;9.90;9.20
20182;DHT22;10250;50.756;6.172;2023-04-25T00:46:21;9.90;33.60
20182;DHT22;10250;50.756;6.172;2023-04-25T00:48:22;10.00;29.30
20182;DHT22;10250;50.756;6.172;2023-04-25T00:50:23;10.00;31.60
20182;DHT22;10250;50.756;6.172;2023-04-25T00:52:24;10.10;30.50
20182;DHT22;10250;50.756;6.172;2023-04-25T00:54:25;10.10;28.90
20182;DHT22;10250;50.756;6.172;2023-04-25T00:56:26;10.20;45.80
20182;DHT22;10250;50.756;6.172;2023-04-25T00:58:26;10.10;24.60
20182;DHT22;10250;50.756;6.172;2023-04-25T01:00:27;10.10;26.00
20182;DHT22;10250;50.756;6.172;2023-04-25T01:02:29;10.00;25.40
20182;DHT22;10250;50.756;6.172;2023-04-25T01:04:30;10.10;28.30
20182;DHT22;10250;50.756;6.172;2023-04-25T01:06:31;10.00;22.90
20182;DHT22;10250;50.756;6.172;2023-04-25T01:08:32;10.10;24.00
20182;DHT22;10250;50.756;6.172;2023-04-25T01:10:32;10.10;29.60
20182;DHT22;10250;50.756;6.172;2023-04-25T01:12:33;10.10;27.50
20182;DHT22;10250;50.756;6.172;2023-04-25T01:14:34;10.10;22.50
20182;DHT22;10250;50.756;6.172;2023-04-25T01:16:35;10.10;20.80
20182;DHT22;10250;50.756;6.172;2023-04-25T01:18:40;10.20;22.60
20182;DHT22;10250;50.756;6.172;2023-04-25T01:20:41;10.20;22.30
20182;DHT22;10250;50.756;6.172;2023-04-25T01:22:42;10.20;22.20
20182;DHT22;10250;50.756;6.172;2023-04-25T01:24:43;10.10;25.50
20182;DHT22;10250;50.756;6.172;2023-04-25T01:26:44;10.10;23.30
20182;DHT22;10250;50.756;6.172;2023-04-25T01:28:50;10.20;27.90
20182;DHT22;10250;50.756;6.172;2023-04-25T01:30:51;10.20;24.40
20182;DHT22;10250;50.756;6.172;2023-04-25T01:32:54;10.20;20.20
20182;DHT22;10250;50.756;6.172;2023-04-25T01:34:55;10.30;19.90
20182;DHT22;10250;50.756;6.172;2023-04-25T01:36:56;10.20;9.30
20182;DHT22;10250;50.756;6.172;2023-04-25T01:38:56;10.20;16.40
20182;DHT22;10250;50.756;6.172;2023-04-25T01:40:57;10.20;14.50
20182;DHT22;10250;50.756;6.172;2023-04-25T01:42:58;10.30;17.20
20182;DHT22;10250;50.756;6.172;2023-04-25T01:44:59;10.30;12.10
20182;DHT22;10250;50.756;6.172;2023-04-25T01:46:59;10.30;11.20
20182;DHT22;10250;50.756;6.172;2023-04-25T01:49:00;10.30;10.80
20182;DHT22;10250;50.756;6.172;2023-04-25T01:51:01;10.30;12.00
20182;DHT22;10250;50.756;6.172;2023-04-25T01:53:02;10.30;11.50
20182;DHT22;10250;50.756;6.172;2023-04-25T01:55:02;10.30;11.30
20182;DHT22;10250;50.756;6.172;2023-04-25T01:57:03;10.10;9.10
20182;DHT22;10250;50.756;6.172;2023-04-25T01:59:04;10.00;10.40
20182;DHT22;10250;50.756;6.172;2023-04-25T02:01:05;10.00;16.00
20182;DHT22;10250;50.756;6.172;2023-04-25T02:03:07;10.10;18.90
20182;DHT22;10250;50.756;6.172;2023-04-25T02:05:08;10.00;24.80
20182;DHT22;10250;50.756;6.172;2023-04-25T02:07:08;10.10;22.20
20182;DHT22;10250;50.756;6.172;2023-04-25T02:09:09;10.10;18.60
20182;DHT22;10250;50.756;6.172;2023-04-25T02:11:10;10.10;21.30
20182;DHT22;10250;50.756;6.172;2023-04-25T02:13:10;10.10;16.30
20182;DHT22;10250;50.756;6.172;2023-04-25T02:15:11;10.20;20.00
20182;DHT22;10250;50.756;6.172;2023-04-25T02:17:12;10.20;18.80
20182;DHT22;10250;50.756;6.172;2023-04-25T02:19:12;10.20;17.80
20182;DHT22;10250;50.756;6.172;2023-04-25T02:21:13;10.20;14.80
20182;DHT22;10250;50.756;6.172;2023-04-25T02:23:14;10.20;14.00
20182;DHT22;10250;50.756;6.172;2023-04-25T02:25:16;10.00;14.70
20182;DHT22;10250;50.756;6.172;2023-04-25T02:27:16;10.10;20.50
20182;DHT22;10250;50.756;6.172;2023-04-25T02:29:17;10.00;20.70
20182;DHT22;10250;50.756;6.172;2023-04-25T02:31:18;9.90;20.00
20182;DHT22;10250;50.756;6.172;2023-04-25T02:33:26;10.00;22.20
20182;DHT22;10250;50.756;6.172;2023-04-25T02:35:26;10.00;19.50
20182;DHT22;10250;50.756;6.172;2023-04-25T02:37:27;10.00;25.80
20182;DHT22;10250;50.756;6.172;2023-04-25T02:39:27;10.00;19.10
20182;DHT22;10250;50.756;6.172;2023-04-25T02:41:28;9.90;23.70
20182;DHT22;10250;50.756;6.172;2023-04-25T02:43:29;9.90;27.50
20182;DHT22;10250;50.756;6.172;2023-04-25T02:45:30;10.00;29.60
20182;DHT22;10250;50.756;6.172;2023-04-25T02:47:30;10.00;28.50
20182;DHT22;10250;50.756;6.172;2023-04-25T02:49:31;10.00;34.70
20182;DHT22;10250;50.756;6.172;2023-04-25T02:51:31;9.90;36.70
20182;DHT22;10250;50.756;6.172;2023-04-25T02:53:32;9.90;34.50
20182;DHT22;10250;50.756;6.172;2023-04-25T02:55:33;9.90;40.90
20182;DHT22;10250;50.756;6.172;2023-04-25T02:57:33;9.80;45.90
20182;DHT22;10250;50.756;6.172;2023-04-25T02:59:34;9.80;47.50
20182;DHT22;10250;50.756;6.172;2023-04-25T03:01:35;9.80;44.90
20182;DHT22;10250;50.756;6.172;2023-04-25T03:03:35;9.80;57.40
20182;DHT22;10250;50.756;6.172;2023-04-25T03:05:36;9.90;47.10
20182;DHT22;10250;50.756;6.172;2023-04-25T03:07:36;10.00;50.80
20182;DHT22;10250;50.756;6.172;2023-04-25T03:09:39;9.90;40.80
20182;DHT22;10250;50.756;6.172;2023-04-25T03:11:40;10.00;43.70
20182;DHT22;10250;50.756;6.172;2023-04-25T03:13:40;10.00;36.90
20182;DHT22;10250;50.756;6.172;2023-04-25T03:15:41;10.00;39.20
20182;DHT22;10250;50.756;6.172;2023-04-25T03:17:41;10.00;36.40
20182;DHT22;10250;50.756;6.172;2023-04-25T03:19:42;10.00;41.80
20182;DHT22;10250;50.756;6.172;2023-04-25T03:21:43;9.90;46.60
20182;DHT22;10250;50.756;6.172;2023-04-25T03:23:44;9.90;53.40
20182;DHT22;10250;50.756;6.172;2023-04-25T03:25:45;9.80;60.10
20182;DHT22;10250;50.756;6.172;2023-04-25T03:27:45;9.80;62.20
20182;DHT22;10250;50.756;6.172;2023-04-25T03:29:46;9.80;87.80
20182;DHT22;10250;50.756;6.172;2023-04-25T03:31:47;9.70;95.30
20182;DHT22;10250;50.756;6.172;2023-04-25T03:33:47;9.70;99.90
20182;DHT22;10250;50.756;6.172;2023-04-25T03:35:48;9.80;99.00
20182;DHT22;10250;50.756;6.172;2023-04-25T03:37:50;9.80;83.50
20182;DHT22;10250;50.756;6.172;2023-04-25T03:39:50;9.80;88.60
20182;DHT22;10250;50.756;6.172;2023-04-25T03:41:51;9.80;90.00
20182;DHT22;10250;50.756;6.172;2023-04-25T03:43:51;9.80;97.20
20182;DHT22;10250;50.756;6.172;2023-04-25T03:45:52;9.90;87.10
20182;DHT22;10250;50.756;6.172;2023-04-25T03:47:53;9.90;86.80
20182;DHT22;10250;50.756;6.172;2023-04-25T03:49:53;9.80;82.60
20182;DHT22;10250;50.756;6.172;2023-04-25T03:51:54;9.80;77.90
20182;DHT22;10250;50.756;6.172;2023-04-25T03:53:54;9.70;81.80
20182;DHT22;10250;50.756;6.172;2023-04-25T03:55:55;9.80;93.10
20182;DHT22;10250;50.756;6.172;2023-04-25T03:57:55;9.80;86.80
20182;DHT22;10250;50.756;6.172;2023-04-25T03:59:58;9.80;92.30
20182;DHT22;10250;50.756;6.172;2023-04-25T04:01:58;9.80;94.20
20182;DHT22;10250;50.756;6.172;2023-04-25T04:03:59;9.70;96.30
20182;DHT22;10250;50.756;6.172;2023-04-25T04:05:59;9.80;90.50
20182;DHT22;10250;50.756;6.172;2023-04-25T04:08:00;9.70;91.70
20182;DHT22;10250;50.756;6.172;2023-04-25T04:10:01;9.80;90.50
20182;DHT22;10250;50.756;6.172;2023-04-25T04:12:01;9.80;80.40
20182;DHT22;10250;50.756;6.172;2023-04-25T04:14:02;9.70;88.90
20182;DHT22;10250;50.756;6.172;2023-04-25T04:16:02;9.70;95.70
20182;DHT22;10250;50.756;6.172;2023-04-25T04:18:04;9.70;94.00
20182;DHT22;10250;50.756;6.172;2023-04-25T04:20:06;9.70;87.00
20182;DHT22;10250;50.756;6.172;2023-04-25T04:22:08;9.60;91.80
20182;DHT22;10250;50.756;6.172;2023-04-25T04:24:08;9.70;99.90
20182;DHT22;10250;50.756;6.172;2023-04-25T04:26:10;9.60;99.90
20182;DHT22;10250;50.756;6.172;2023-04-25T04:28:11;9.70;95.10
20182;DHT22;10250;50.756;6.172;2023-04-25T04:30:13;9.60;91.50
20182;DHT22;10250;50.756;6.172;2023-04-25T04:32:15;9.60;95.40
20182;DHT22;10250;50.756;6.172;2023-04-25T04:34:19;9.60;98.70
20182;DHT22;10250;50.756;6.172;2023-04-25T04:36:19;9.60;98.30
20182;DHT22;10250;50.756;6.172;2023-04-25T04:38:22;9.60;95.40
20182;DHT22;10250;50.756;6.172;2023-04-25T04:40:22;9.60;90.50
20182;DHT22;10250;50.756;6.172;2023-04-25T04:42:23;9.70;96.20
20182;DHT22;10250;50.756;6.172;2023-04-25T04:44:25;9.70;92.20
20182;DHT22;10250;50.756;6.172;2023-04-25T04:46:25;9.70;92.70
20182;DHT22;10250;50.756;6.172;2023-04-25T04:48:26;9.60;94.90
20182;DHT22;10250;50.756;6.172;2023-04-25T04:50:27;9.70;99.90
20182;DHT22;10250;50.756;6.172;2023-04-25T04:52:27;9.60;94.60
20182;DHT22;10250;50.756;6.172;2023-04-25T04:54:28;9.50;98.60
20182;DHT22;10250;50.756;6.172;2023-04-25T04:56:31;9.60;99.90
20182;DHT22;10250;50.756;6.172;2023-04-25T04:58:32;9.50;99.90
20182;DHT22;10250;50.756;6.172;2023-04-25T05:00:33;9.50;99.90
20182;DHT22;10250;50.756;6.172;2023-04-25T05:02:34;9.50;99.90
20182;DHT22;10250;50.756;6.172;2023-04-25T05:04:34;9.50;99.90
20182;DHT22;10250;50.756;6.172;2023-04-25T05:06:35;9.50;99.90
20182;DHT22;10250;50.756;6.172;2023-04-25T05:08:36;9.60;99.90
20182;DHT22;10250;50.756;6.172;2023-04-25T05:10:37;9.60;94.10
20182;DHT22;10250;50.756;6.172;2023-04-25T05:12:37;9.60;99.90
20182;DHT22;10250;50.756;6.172;2023-04-25T05:14:38;9.50;99.90
20182;DHT22;10250;50.756;6.172;2023-04-25T05:16:38;9.50;99.90
20182;DHT22;10250;50.756;6.172;2023-04-25T05:18:39;9.50;97.20
20182;DHT22;10250;50.756;6.172;2023-04-25T05:20:40;9.50;99.90
20182;DHT22;10250;50.756;6.172;2023-04-25T05:22:41;9.70;99.90
20182;DHT22;10250;50.756;6.172;2023-04-25T05:24:42;9.60;99.90
20182;DHT22;10250;50.756;6.172;2023-04-25T05:26:42;9.60;96.80
20182;DHT22;10250;50.756;6.172;2023-04-25T05:28:43;9.50;95.20
20182;DHT22;10250;50.756;6.172;2023-04-25T05:30:43;9.60;99.90
20182;DHT22;10250;50.756;6.172;2023-04-25T05:32:44;9.50;95.70
20182;DHT22;10250;50.756;6.172;2023-04-25T05:34:47;9.60;99.00
20182;DHT22;10250;50.756;6.172;2023-04-25T05:36:47;9.60;99.90
20182;DHT22;10250;50.756;6.172;2023-04-25T05:38:50;9.70;99.60
20182;DHT22;10250;50.756;6.172;2023-04-25T05:40:51;9.60;95.20
20182;DHT22;10250;50.756;6.172;2023-04-25T05:42:51;9.60;97.10
20182;DHT22;10250;50.756;6.172;2023-04-25T05:44:52;9.70;96.90
20182;DHT22;10250;50.756;6.172;2023-04-25T05:46:52;9.70;99.40
20182;DHT22;10250;50.756;6.172;2023-04-25T05:48:53;9.80;99.90
20182;DHT22;10250;50.756;6.172;2023-04-25T05:50:53;9.90;99.90
20182;DHT22;10250;50.756;6.172;2023-04-25T05:52:54;9.80;96.70
20182;DHT22;10250;50.756;6.172;2023-04-25T05:54:55;9.80;98.30
20182;DHT22;10250;50.756;6.172;2023-04-25T05:56:56;9.90;99.80
20182;DHT22;10250;50.756;6.172;2023-04-25T05:58:57;9.90;97.00
20182;DHT22;10250;50.756;6.172;2023-04-25T06:00:58;9.90;96.80
20182;DHT22;10250;50.756;6.172;2023-04-25T06:02:58;9.90;93.60
20182;DHT22;10250;50.756;6.172;2023-04-25T06:04:59;9.90;94.60
20182;DHT22;10250;50.756;6.172;2023-04-25T06:07:00;9.90;94.00
20182;DHT22;10250;50.756;6.172;2023-04-25T06:09:00;9.90;79.20
20182;DHT22;10250;50.756;6.172;2023-04-25T06:11:01;9.90;84.50
20182;DHT22;10250;50.756;6.172;2023-04-25T06:13:01;9.90;89.80
20182;DHT22;10250;50.756;6.172;2023-04-25T06:15:02;9.90;90.20
20182;DHT22;10250;50.756;6.172;2023-04-25T06:17:04;10.00;77.50
20182;DHT22;10250;50.756;6.172;2023-04-25T06:19:08;10.10;71.50
20182;DHT22;10250;50.756;6.172;2023-04-25T06:21:09;10.20;59.30
20182;DHT22;10250;50.756;6.172;2023-04-25T06:23:09;10.20;40.20
20182;DHT22;10250;50.756;6.172;2023-04-25T06:25:10;10.10;50.00
20182;DHT22;10250;50.756;6.172;2023-04-25T06:27:10;10.10;47.30
20182;DHT22;10250;50.756;6.172;2023-04-25T06:29:11;10.10;48.30
20182;DHT22;10250;50.756;6.172;2023-04-25T06:31:12;9.90;39.20
20182;DHT22;10250;50.756;6.172;2023-04-25T06:33:12;9.90;53.60
20182;DHT22;10250;50.756;6.172;2023-04-25T06:35:13;9.90;50.90
20182;DHT22;10250;50.756;6.172;2023-04-25T06:37:13;10.00;60.00
20182;DHT22;10250;50.756;6.172;2023-04-25T06:39:14;10.00;49.20
20182;DHT22;10250;50.756;6.172;2023-04-25T06:41:14;10.00;52.70
20182;DHT22;10250;50.756;6.172;2023-04-25T06:43:15;10.00;54.80
20182;DHT22;10250;50.756;6.172;2023-04-25T06:45:16;10.00;50.50
20182;DHT22;10250;50.756;6.172;2023-04-25T06:47:16;10.00;51.20
20182;DHT22;10250;50.756;6.172;2023-04-25T06:49:17;10.10;45.50
20182;DHT22;10250;50.756;6.172;2023-04-25T06:51:17;10.10;48.50
20182;DHT22;10250;50.756;6.172;2023-04-25T06:53:18;10.20;54.00
20182;DHT22;10250;50.756;6.172;2023-04-25T06:55:19;10.20;35.90
20182;DHT22;10250;50.756;6.172;2023-04-25T06:57:20;10.20;26.20
20182;DHT22;10250;50.756;6.172;2023-04-25T06:59:20;10.10;22.60
20182;DHT22;10250;50.756;6.172;2023-04-25T07:01:21;10.30;23.60
20182;DHT22;10250;50.756;6.172;2023-04-25T07:03:21;10.20;13.90
20182;DHT22;10250;50.756;6.172;2023-04-25T07:05:22;10.20;9.10
20182;DHT22;10250;50.756;6.172;2023-04-25T07:07:22;10.20;10.10
20182;DHT22;10250;50.756;6.172;2023-04-25T07:09:23;10.30;13.10
20182;DHT22;10250;50.756;6.172;2023-04-25T07:11:24;10.20;1.00
20182;DHT22;10250;50.756;6.172;2023-04-25T07:13:24;10.00;1.00
20182;DHT22;10250;50.756;6.172;2023-04-25T07:15:25;10.10;1.00
20182;DHT22;10250;50.756;6.172;2023-04-25T07:17:26;10.00;1.00
20182;DHT22;10250;50.756;6.172;2023-04-25T07:19:26;10.10;1.00
20182;DHT22;10250;50.756;6.172;2023-04-25T07:21:29;10.00;1.00
20182;DHT22;10250;50.756;6.172;2023-04-25T07:23:31;9.50;1.00
20182;DHT22;10250;50.756;6.172;2023-04-25T07:25:32;9.50;1.00
20182;DHT22;10250;50.756;6.172;2023-04-25T07:27:33;9.70;1.00
20182;DHT22;10250;50.756;6.172;2023-04-25T07:29:33;9.80;1.00
20182;DHT22;10250;50.756;6.172;2023-04-25T07:31:37;9.90;1.00
20182;DHT22;10250;50.756;6.172;2023-04-25T07:33:38;10.00;1.00
20182;DHT22;10250;50.756;6.172;2023-04-25T07:35:38;10.00;1.00
20182;DHT22;10250;50.756;6.172;2023-04-25T07:37:39;10.10;1.00
20182;DHT22;10250;50.756;6.172;2023-04-25T07:39:40;10.20;1.00
20182;DHT22;10250;50.756;6.172;2023-04-25T07:41:40;10.00;1.00
20182;DHT22;10250;50.756;6.172;2023-04-25T07:43:41;9.70;1.00
20182;DHT22;10250;50.756;6.172;2023-04-25T07:45:42;9.80;1.00
20182;DHT22;10250;50.756;6.172;2023-04-25T07:47:43;9.80;1.00
20182;DHT22;10250;50.756;6.172;2023-04-25T07:49:43;9.90;1.00
20182;DHT22;10250;50.756;6.172;2023-04-25T07:51:44;10.00;1.00
20182;DHT22;10250;50.756;6.172;2023-04-25T07:53:45;10.00;1.00
20182;DHT22;10250;50.756;6.172;2023-04-25T07:55:45;9.90;1.00
20182;DHT22;10250;50.756;6.172;2023-04-25T07:57:46;10.10;1.00
20182;DHT22;10250;50.756;6.172;2023-04-25T07:59:46;10.10;1.00
20182;DHT22;10250;50.756;6.172;2023-04-25T08:01:47;10.00;1.00
20182;DHT22;10250;50.756;6.172;2023-04-25T08:03:48;10.00;1.00
20182;DHT22;10250;50.756;6.172;2023-04-25T08:05:48;10.10;1.00
20182;DHT22;10250;50.756;6.172;2023-04-25T08:07:49;10.10;1.00
20182;DHT22;10250;50.756;6.172;2023-04-25T08:09:50;10.10;1.00
20182;DHT22;10250;50.756;6.172;2023-04-25T08:11:50;10.20;1.00
20182;DHT22;10250;50.756;6.172;2023-04-25T08:13:51;10.20;1.00
20182;DHT22;10250;50.756;6.172;2023-04-25T08:15:52;10.10;1.00
20182;DHT22;10250;50.756;6.172;2023-04-25T08:17:52;10.10;1.00
20182;DHT22;10250;50.756;6.172;2023-04-25T08:19:53;10.00;1.00
20182;DHT22;10250;50.756;6.172;2023-04-25T08:21:53;10.00;1.00
20182;DHT22;10250;50.756;6.172;2023-04-25T08:23:55;10.10;1.00
20182;DHT22;10250;50.756;6.172;2023-04-25T08:25:57;10.20;1.00
20182;DHT22;10250;50.756;6.172;2023-04-25T08:27:58;10.30;1.00
20182;DHT22;10250;50.756;6.172;2023-04-25T08:29:59;10.30;1.00
20182;DHT22;10250;50.756;6.172;2023-04-25T08:32:00;10.30;1.00
20182;DHT22;10250;50.756;6.172;2023-04-25T08:34:01;10.20;1.00
20182;DHT22;10250;50.756;6.172;2023-04-25T08:36:02;10.40;1.00
20182;DHT22;10250;50.756;6.172;2023-04-25T08:38:02;10.40;1.00
20182;DHT22;10250;50.756;6.172;2023-04-25T08:40:04;10.50;1.00
20182;DHT22;10250;50.756;6.172;2023-04-25T08:42:07;10.40;1.00
20182;DHT22;10250;50.756;6.172;2023-04-25T08:44:10;10.50;1.00
20182;DHT22;10250;50.756;6.172;2023-04-25T08:46:11;10.60;1.00
20182;DHT22;10250;50.756;6.172;2023-04-25T08:48:14;10.70;1.00
20182;DHT22;10250;50.756;6.172;2023-04-25T08:50:17;10.80;1.00
20182;DHT22;10250;50.756;6.172;2023-04-25T08:52:22;10.80;1.00
20182;DHT22;10250;50.756;6.172;2023-04-25T08:54:23;10.70;1.00
20182;DHT22;10250;50.756;6.172;2023-04-25T08:56:26;10.70;1.00
20182;DHT22;10250;50.756;6.172;2023-04-25T08:58:28;10.80;1.00
20182;DHT22;10250;50.756;6.172;2023-04-25T09:00:29;10.80;1.00
20182;DHT22;10250;50.756;6.172;2023-04-25T09:02:30;10.90;1.00
20182;DHT22;10250;50.756;6.172;2023-04-25T09:04:31;11.00;1.00
20182;DHT22;10250;50.756;6.172;2023-04-25T09:06:32;10.20;1.00
20182;DHT22;10250;50.756;6.172;2023-04-25T09:08:36;10.20;1.00
20182;DHT22;10250;50.756;6.172;2023-04-25T09:10:37;10.70;1.00
20182;DHT22;10250;50.756;6.172;2023-04-25T09:12:38;10.90;1.00
20182;DHT22;10250;50.756;6.172;2023-04-25T09:14:39;10.90;1.00
20182;DHT22;10250;50.756;6.172;2023-04-25T09:17:01;10.90;1.00
20182;DHT22;10250;50.756;6.172;2023-04-25T09:19:02;10.80;1.00
20182;DHT22;10250;50.756;6.172;2023-04-25T09:21:08;10.80;1.00
20182;DHT22;10250;50.756;6.172;2023-04-25T09:23:08;11.00;1.00
20182;DHT22;10250;50.756;6.172;2023-04-25T09:25:10;10.90;1.00
20182;DHT22;10250;50.756;6.172;2023-04-25T09:27:17;11.00;1.00
20182;DHT22;10250;50.756;6.172;2023-04-25T09:29:18;11.00;1.00
20182;DHT22;10250;50.756;6.172;2023-04-25T09:31:23;11.10;1.00
20182;DHT22;10250;50.756;6.172;2023-04-25T09:33:29;11.00;1.00
20182;DHT22;10250;50.756;6.172;2023-04-25T09:35:36;10.80;1.00
20182;DHT22;10250;50.756;6.172;2023-04-25T09:37:40;10.70;1.00
20182;DHT22;10250;50.756;6.172;2023-04-25T09:39:40;10.60;1.00
20182;DHT22;10250;50.756;6.172;2023-04-25T09:41:41;10.80;1.00
20182;DHT22;10250;50.756;6.172;2023-04-25T09:43:45;10.70;1.00
20182;DHT22;10250;50.756;6.172;2023-04-25T09:45:47;10.70;1.00
20182;DHT22;10250;50.756;6.172;2023-04-25T09:47:48;10.60;1.00
20182;DHT22;10250;50.756;6.172;2023-04-25T09:49:49;10.80;1.00
20182;DHT22;10250;50.756;6.172;2023-04-25T09:51:56;10.60;1.00
20182;DHT22;10250;50.756;6.172;2023-04-25T09:53:57;10.70;1.00
20182;DHT22;10250;50.756;6.172;2023-04-25T09:56:00;10.80;1.00
20182;DHT22;10250;50.756;6.172;2023-04-25T09:58:04;10.80;1.00
20182;DHT22;10250;50.756;6.172;2023-04-25T10:00:09;10.70;1.00
20182;DHT22;10250;50.756;6.172;2023-04-25T10:02:14;10.80;1.00
20182;DHT22;10250;50.756;6.172;2023-04-25T10:04:19;10.70;1.00
20182;DHT22;10250;50.756;6.172;2023-04-25T10:06:22;10.70;1.00
20182;DHT22;10250;50.756;6.172;2023-04-25T10:08:26;10.60;1.00
20182;DHT22;10250;50.756;6.172;2023-04-25T10:10:30;10.80;1.00
20182;DHT22;10250;50.756;6.172;2023-04-25T10:12:36;10.80;1.00
20182;DHT22;10250;50.756;6.172;2023-04-25T10:14:37;10.70;1.00
20182;DHT22;10250;50.756;6.172;2023-04-25T10:16:38;10.70;1.00
20182;DHT22;10250;50.756;6.172;2023-04-25T10:18:40;10.80;1.00
20182;DHT22;10250;50.756;6.172;2023-04-25T10:20:41;10.70;1.00
20182;DHT22;10250;50.756;6.172;2023-04-25T10:22:43;10.70;1.00
20182;DHT22;10250;50.756;6.172;2023-04-25T10:24:46;10.80;1.00
20182;DHT22;10250;50.756;6.172;2023-04-25T10:26:48;10.90;1.00
20182;DHT22;10250;50.756;6.172;2023-04-25T10:28:58;10.90;1.00
20182;DHT22;10250;50.756;6.172;2023-04-25T10:31:01;10.90;1.00
20182;DHT22;10250;50.756;6.172;2023-04-25T10:33:16;11.00;1.00
20182;DHT22;10250;50.756;6.172;2023-04-25T10:35:24;10.90;1.00
20182;DHT22;10250;50.756;6.172;2023-04-25T10:37:25;11.00;1.00
20182;DHT22;10250;50.756;6.172;2023-04-25T10:39:27;10.80;1.00
20182;DHT22;10250;50.756;6.172;2023-04-25T10:41:28;10.90;1.00
20182;DHT22;10250;50.756;6.172;2023-04-25T10:46:12;10.70;1.00
20182;DHT22;10250;50.756;6.172;2023-04-25T10:48:25;10.80;1.00
20182;DHT22;10250;50.756;6.172;2023-04-25T10:50:37;10.90;1.00
20182;DHT22;10250;50.756;6.172;2023-04-25T10:52:41;11.00;1.00
20182;DHT22;10250;50.756;6.172;2023-04-25T10:54:49;11.10;1.00
20182;DHT22;10250;50.756;6.172;2023-04-25T10:56:51;11.30;1.00
20182;DHT22;10250;50.756;6.172;2023-04-25T10:59:12;11.40;1.00
20182;DHT22;10250;50.756;6.172;2023-04-25T11:01:20;11.60;1.00
20182;DHT22;10250;50.756;6.172;2023-04-25T11:03:21;11.50;1.00
20182;DHT22;10250;50.756;6.172;2023-04-25T11:05:33;11.40;1.00
20182;DHT22;10250;50.756;6.172;2023-04-25T11:07:50;11.30;1.00
20182;DHT22;10250;50.756;6.172;2023-04-25T11:09:52;11.30;1.00
20182;DHT22;10250;50.756;6.172;2023-04-25T11:11:57;11.20;1.00
20182;DHT22;10250;50.756;6.172;2023-04-25T11:13:58;11.20;1.00
20182;DHT22;10250;50.756;6.172;2023-04-25T11:15:58;11.40;1.00
20182;DHT22;10250;50.756;6.172;2023-04-25T11:17:59;11.30;1.00
20182;DHT22;10250;50.756;6.172;2023-04-25T11:20:00;11.30;1.00
20182;DHT22;10250;50.756;6.172;2023-04-25T11:22:02;11.30;1.00
20182;DHT22;10250;50.756;6.172;2023-04-25T11:24:02;11.40;1.00
20182;DHT22;10250;50.756;6.172;2023-04-25T11:26:04;11.20;1.00
20182;DHT22;10250;50.756;6.172;2023-04-25T11:28:05;11.30;1.00
20182;DHT22;10250;50.756;6.172;2023-04-25T11:30:14;11.40;1.00
20182;DHT22;10250;50.756;6.172;2023-04-25T11:32:17;11.00;1.00
20182;DHT22;10250;50.756;6.172;2023-04-25T11:34:18;10.80;1.00
20182;DHT22;10250;50.756;6.172;2023-04-25T11:36:19;10.80;1.00
20182;DHT22;10250;50.756;6.172;2023-04-25T11:38:20;10.80;1.00
20182;DHT22;10250;50.756;6.172;2023-04-25T11:40:20;10.90;1.00
20182;DHT22;10250;50.756;6.172;2023-04-25T11:42:21;10.80;1.00
20182;DHT22;10250;50.756;6.172;2023-04-25T11:44:22;10.50;1.00
20182;DHT22;10250;50.756;6.172;2023-04-25T11:46:22;10.50;1.00
20182;DHT22;10250;50.756;6.172;2023-04-25T11:48:23;10.50;1.00
20182;DHT22;10250;50.756;6.172;2023-04-25T11:50:24;10.70;1.00
20182;DHT22;10250;50.756;6.172;2023-04-25T11:52:24;10.80;1.00
20182;DHT22;10250;50.756;6.172;2023-04-25T11:54:25;10.80;1.00
20182;DHT22;10250;50.756;6.172;2023-04-25T11:56:26;10.90;1.00
20182;DHT22;10250;50.756;6.172;2023-04-25T11:58:27;10.80;1.00
20182;DHT22;10250;50.756;6.172;2023-04-25T12:00:28;10.50;1.00
20182;DHT22;10250;50.756;6.172;2023-04-25T12:02:28;10.70;1.00
20182;DHT22;10250;50.756;6.172;2023-04-25T12:04:30;10.90;1.00
20182;DHT22;10250;50.756;6.172;2023-04-25T12:06:32;11.00;1.00
20182;DHT22;10250;50.756;6.172;2023-04-25T12:08:32;10.90;1.00
20182;DHT22;10250;50.756;6.172;2023-04-25T12:10:40;10.90;1.00
20182;DHT22;10250;50.756;6.172;2023-04-25T12:12:48;11.00;1.00
20182;DHT22;10250;50.756;6.172;2023-04-25T12:14:48;11.10;1.00
20182;DHT22;10250;50.756;6.172;2023-04-25T12:16:50;11.10;1.00
20182;DHT22;10250;50.756;6.172;2023-04-25T12:18:52;11.00;1.00
20182;DHT22;10250;50.756;6.172;2023-04-25T12:20:53;10.80;1.00
20182;DHT22;10250;50.756;6.172;2023-04-25T12:22:54;10.90;1.00
20182;DHT22;10250;50.756;6.172;2023-04-25T12:24:57;10.90;1.00
20182;DHT22;10250;50.756;6.172;2023-04-25T12:27:03;11.00;1.00
20182;DHT22;10250;50.756;6.172;2023-04-25T12:29:21;10.90;1.00
20182;DHT22;10250;50.756;6.172;2023-04-25T12:31:22;11.00;1.00
20182;DHT22;10250;50.756;6.172;2023-04-25T12:33:27;11.00;1.00
20182;DHT22;10250;50.756;6.172;2023-04-25T12:35:28;11.00;1.00
20182;DHT22;10250;50.756;6.172;2023-04-25T12:37:28;11.00;1.00
20182;DHT22;10250;50.756;6.172;2023-04-25T12:39:29;11.10;1.00
20182;DHT22;10250;50.756;6.172;2023-04-25T12:41:30;11.20;1.00
20182;DHT22;10250;50.756;6.172;2023-04-25T12:43:31;11.20;1.00
20182;DHT22;10250;50.756;6.172;2023-04-25T12:45:31;11.20;1.00
20182;DHT22;10250;50.756;6.172;2023-04-25T12:47:32;11.20;1.00
20182;DHT22;10250;50.756;6.172;2023-04-25T12:49:35;11.20;1.00
20182;DHT22;10250;50.756;6.172;2023-04-25T12:51:36;11.20;1.00
20182;DHT22;10250;50.756;6.172;2023-04-25T12:53:37;11.30;1.00
20182;DHT22;10250;50.756;6.172;2023-04-25T12:55:39;11.40;1.00
20182;DHT22;10250;50.756;6.172;2023-04-25T12:57:40;11.40;1.00
20182;DHT22;10250;50.756;6.172;2023-04-25T12:59:41;11.50;1.00
20182;DHT22;10250;50.756;6.172;2023-04-25T13:01:41;11.20;1.00